Time;durP1;ratioP1;P1;durP2;ratioP2;P2;SDS_P1;SDS_P2;PMS_P1;PMS_P2;Temp;Humidity;BMP_temperature;BMP_pressure;BME280_temperature;BME280_humidity;BME280_pressure;Samples;Min_cycle;Max_cycle;Signal;HPM_P1;HPM_P2
2022/01/02 00:01:35;;;;;;;3.65;1.90;;;;;;;;;;5070665;28;20037;-38
2022/01/02 00:04:02;;;;;;;5.22;1.80;;;;;;;;;;5070920;28;20366;-38
2022/01/02 00:06:30;;;;;;;4.90;1.90;;;;;;;;;;5070597;28;20490;-38
2022/01/02 00:09:01;;;;;;;2.55;2.05;;;;;;;;;;5070868;28;20025;-37
2022/01/02 00:11:26;;;;;;;6.10;2.25;;;;;;;;;;5072513;28;20059;-37
2022/01/02 00:13:54;;;;;;;4.68;1.55;;;;;;;;;;5074317;28;20516;-38
2022/01/02 00:16:21;;;;;;;3.03;1.95;;;;;;;;;;5074382;28;20068;-38
2022/01/02 00:19:02;;;;;;;6.63;1.73;;;;;;;;;;5072898;28;20029;-37
2022/01/02 00:21:29;;;;;;;2.28;1.70;;;;;;;;;;5089657;28;20115;-37
2022/01/02 00:24:01;;;;;;;2.65;1.70;;;;;;;;;;5074226;28;20206;-38
2022/01/02 00:26:36;;;;;;;4.07;2.20;;;;;;;;;;5073907;28;20040;-37
2022/01/02 00:29:05;;;;;;;3.72;1.60;;;;;;;;;;5074015;28;20029;-38
2022/01/02 00:31:31;;;;;;;4.00;2.50;;;;;;;;;;5073943;28;20035;-38
2022/01/02 00:33:57;;;;;;;2.83;2.00;;;;;;;;;;5073941;28;20561;-38
2022/01/02 00:36:22;;;;;;;5.20;1.95;;;;;;;;;;5073797;28;20028;-37
2022/01/02 00:38:48;;;;;;;2.85;1.63;;;;;;;;;;5072402;28;20135;-37
2022/01/02 00:41:15;;;;;;;3.50;2.20;;;;;;;;;;5073850;28;20047;-38
2022/01/02 00:43:45;;;;;;;4.10;1.73;;;;;;;;;;5073677;28;20048;-37
2022/01/02 00:46:13;;;;;;;2.55;1.55;;;;;;;;;;5073781;28;20039;-37
2022/01/02 00:48:39;;;;;;;1.58;1.30;;;;;;;;;;5073485;28;20119;-38
2022/01/02 00:51:09;;;;;;;4.93;1.95;;;;;;;;;;5073945;28;20378;-38
2022/01/02 00:53:35;;;;;;;3.13;1.75;;;;;;;;;;5073560;28;20059;-38
2022/01/02 00:56:01;;;;;;;4.65;2.50;;;;;;;;;;5073441;28;20012;-38
2022/01/02 00:58:49;;;;;;;3.25;1.80;;;;;;;;;;5088999;28;20032;-38
2022/01/02 01:01:15;;;;;;;4.50;1.40;;;;;;;;;;5073637;28;20540;-37
2022/01/02 01:03:41;;;;;;;2.33;1.83;;;;;;;;;;5072002;28;20051;-38
2022/01/02 01:06:09;;;;;;;5.00;3.05;;;;;;;;;;5088950;28;20056;-37
2022/01/02 01:08:35;;;;;;;7.32;2.25;;;;;;;;;;5073199;28;20039;-37
2022/01/02 01:11:04;;;;;;;2.60;1.38;;;;;;;;;;5073471;28;20112;-38
2022/01/02 01:13:30;;;;;;;4.18;1.90;;;;;;;;;;5071865;28;20029;-38
2022/01/02 01:15:57;;;;;;;2.88;1.92;;;;;;;;;;5071854;28;20028;-38
2022/01/02 01:18:23;;;;;;;4.25;1.70;;;;;;;;;;5071620;28;20012;-37
2022/01/02 01:20:51;;;;;;;5.07;1.73;;;;;;;;;;5088624;28;20050;-38
2022/01/02 01:23:17;;;;;;;4.35;2.05;;;;;;;;;;5072271;28;20499;-39
2022/01/02 01:25:45;;;;;;;3.58;1.55;;;;;;;;;;5088732;28;20487;-37
2022/01/02 01:28:12;;;;;;;7.72;2.65;;;;;;;;;;5072926;28;20016;-38
2022/01/02 01:30:38;;;;;;;5.32;2.22;;;;;;;;;;5071393;28;20040;-39
2022/01/02 01:33:03;;;;;;;4.18;2.25;;;;;;;;;;5073170;28;20476;-38
2022/01/02 01:35:29;;;;;;;3.03;1.92;;;;;;;;;;5088222;28;20120;-37
2022/01/02 01:37:54;;;;;;;3.47;1.60;;;;;;;;;;5071326;28;20024;-38
2022/01/02 01:40:20;;;;;;;2.85;2.05;;;;;;;;;;5072503;28;20057;-38
2022/01/02 01:42:57;;;;;;;1.67;1.40;;;;;;;;;;5071359;28;20003;-38
2022/01/02 01:47:54;;;;;;;4.68;2.13;;;;;;;;;;5072740;28;20469;-38
2022/01/02 01:50:20;;;;;;;3.30;2.40;;;;;;;;;;5072460;28;20028;-39
2022/01/02 01:52:46;;;;;;;3.25;2.13;;;;;;;;;;5072449;28;20025;-38
2022/01/02 01:55:12;;;;;;;6.32;1.73;;;;;;;;;;5072601;28;20051;-38
2022/01/02 01:57:39;;;;;;;3.03;1.65;;;;;;;;;;5070922;28;20029;-38
2022/01/02 02:00:06;;;;;;;7.47;2.42;;;;;;;;;;5072213;28;20028;-37
2022/01/02 02:02:32;;;;;;;3.95;1.63;;;;;;;;;;5072147;28;20114;-38
2022/01/02 02:04:58;;;;;;;6.18;2.20;;;;;;;;;;5070883;28;20040;-38
2022/01/02 02:07:30;;;;;;;4.13;2.00;;;;;;;;;;5070786;28;20082;-37
2022/01/02 02:10:12;;;;;;;4.15;2.75;;;;;;;;;;5070787;28;20035;-38
2022/01/02 02:12:42;;;;;;;5.32;2.28;;;;;;;;;;5087586;28;20036;-37
2022/01/02 02:15:08;;;;;;;4.55;1.73;;;;;;;;;;5070642;28;20032;-38
2022/01/02 02:17:34;;;;;;;4.32;1.45;;;;;;;;;;5070627;28;20032;-38
2022/01/02 02:20:12;;;;;;;4.03;2.08;;;;;;;;;;5070572;28;20016;-37
2022/01/02 02:22:40;;;;;;;1.63;1.50;;;;;;;;;;5071697;28;20045;-38
2022/01/02 02:25:07;;;;;;;5.68;1.80;;;;;;;;;;5070548;28;20066;-41
2022/01/02 02:27:32;;;;;;;2.88;2.20;;;;;;;;;;5071834;28;20078;-38
2022/01/02 02:29:58;;;;;;;4.85;1.88;;;;;;;;;;5070527;28;20483;-37
2022/01/02 02:32:24;;;;;;;2.65;1.60;;;;;;;;;;5087279;28;20035;-38
2022/01/02 02:34:50;;;;;;;5.57;1.55;;;;;;;;;;5069445;28;20459;-38
2022/01/02 02:37:15;;;;;;;3.03;1.48;;;;;;;;;;5070347;28;20028;-38
2022/01/02 02:39:41;;;;;;;3.53;1.55;;;;;;;;;;5070049;28;20049;-38
2022/01/02 02:42:14;;;;;;;3.58;1.92;;;;;;;;;;5071757;28;20037;-37
2022/01/02 02:44:40;;;;;;;4.75;2.25;;;;;;;;;;5071710;28;20831;-37
2022/01/02 02:49:51;;;;;;;2.92;1.75;;;;;;;;;;5087074;28;20052;-37
2022/01/02 02:52:42;;;;;;;6.10;2.13;;;;;;;;;;5071565;28;20063;-37
2022/01/02 02:55:05;;;;;;;4.07;2.20;;;;;;;;;;5069958;28;20478;-37
2022/01/02 02:57:33;;;;;;;4.88;2.40;;;;;;;;;;5071269;28;20070;-37
2022/01/02 02:59:58;;;;;;;7.35;1.95;;;;;;;;;;5070050;28;20048;-38
2022/01/02 03:02:24;;;;;;;4.72;2.90;;;;;;;;;;5069858;28;20372;-43
2022/01/02 03:04:49;;;;;;;4.82;2.97;;;;;;;;;;5071310;28;20063;-38
2022/01/02 03:07:14;;;;;;;4.03;2.28;;;;;;;;;;5070204;28;20028;-38
2022/01/02 03:09:47;;;;;;;5.72;3.05;;;;;;;;;;5086693;28;20036;-37
2022/01/02 03:12:13;;;;;;;3.55;2.08;;;;;;;;;;5086745;28;20029;-38
2022/01/02 03:14:44;;;;;;;2.97;1.83;;;;;;;;;;5069858;28;20024;-37
2022/01/02 03:17:10;;;;;;;2.60;1.70;;;;;;;;;;5071411;28;20032;-38
2022/01/02 03:19:36;;;;;;;3.95;1.65;;;;;;;;;;5069795;28;20360;-38
2022/01/02 03:22:02;;;;;;;2.20;1.38;;;;;;;;;;5086725;28;20094;-38
2022/01/02 03:24:27;;;;;;;3.65;1.58;;;;;;;;;;5069635;28;20069;-37
2022/01/02 03:26:53;;;;;;;2.88;1.92;;;;;;;;;;5069806;28;20116;-38
2022/01/02 03:29:19;;;;;;;2.63;1.90;;;;;;;;;;5071042;28;20021;-37
2022/01/02 03:31:45;;;;;;;3.50;1.67;;;;;;;;;;5069657;28;20039;-38
2022/01/02 03:34:11;;;;;;;4.20;1.90;;;;;;;;;;5069782;28;20016;-37
2022/01/02 03:36:37;;;;;;;3.63;1.55;;;;;;;;;;5069703;28;20028;-37
2022/01/02 03:39:03;;;;;;;6.85;2.92;;;;;;;;;;5069524;28;20072;-38
2022/01/02 03:41:29;;;;;;;3.83;2.35;;;;;;;;;;5069529;28;20555;-37
2022/01/02 03:43:55;;;;;;;4.93;2.40;;;;;;;;;;5069686;28;20025;-38
2022/01/02 03:46:21;;;;;;;2.35;1.70;;;;;;;;;;5071471;28;20024;-37
2022/01/02 03:48:46;;;;;;;2.97;1.48;;;;;;;;;;5073547;28;20584;-38
2022/01/02 03:51:12;;;;;;;2.95;1.98;;;;;;;;;;5074789;28;20032;-37
2022/01/02 03:53:38;;;;;;;3.72;1.90;;;;;;;;;;5073296;28;20025;-38
2022/01/02 03:56:04;;;;;;;5.13;1.67;;;;;;;;;;5073379;28;20115;-38
2022/01/02 03:58:30;;;;;;;2.92;2.03;;;;;;;;;;5073194;28;20021;-38
2022/01/02 04:00:56;;;;;;;2.90;1.83;;;;;;;;;;5074758;28;20028;-38
2022/01/02 04:03:22;;;;;;;2.40;1.73;;;;;;;;;;5073156;28;20028;-37
2022/01/02 04:05:47;;;;;;;2.13;1.52;;;;;;;;;;5074538;28;20036;-37
2022/01/02 04:08:13;;;;;;;5.40;2.00;;;;;;;;;;5072999;28;20027;-37
2022/01/02 04:10:39;;;;;;;2.58;1.50;;;;;;;;;;5072937;28;20077;-37
2022/01/02 04:13:06;;;;;;;2.90;1.70;;;;;;;;;;5073022;28;20021;-41
2022/01/02 04:15:32;;;;;;;4.00;2.15;;;;;;;;;;5072922;28;20028;-39
2022/01/02 04:17:58;;;;;;;5.03;2.00;;;;;;;;;;5074523;28;20428;-38
2022/01/02 04:20:24;;;;;;;4.47;2.20;;;;;;;;;;5073994;28;20540;-37
2022/01/02 04:22:49;;;;;;;3.67;1.58;;;;;;;;;;5074490;28;20028;-38
2022/01/02 04:25:14;;;;;;;3.80;1.70;;;;;;;;;;5072875;28;20032;-37
2022/01/02 04:27:40;;;;;;;2.13;1.50;;;;;;;;;;5072644;28;20075;-37
2022/01/02 04:30:07;;;;;;;1.52;1.10;;;;;;;;;;5074065;28;20036;-38
2022/01/02 04:32:32;;;;;;;2.90;1.70;;;;;;;;;;5089484;28;20031;-38
2022/01/02 04:34:58;;;;;;;2.92;1.73;;;;;;;;;;5072666;28;20024;-37
2022/01/02 04:37:24;;;;;;;3.95;1.42;;;;;;;;;;5073769;28;20471;-37
2022/01/02 04:39:51;;;;;;;1.73;1.17;;;;;;;;;;5072409;28;20055;-38
2022/01/02 04:42:16;;;;;;;4.63;2.17;;;;;;;;;;5074065;28;20040;-38
2022/01/02 04:44:42;;;;;;;5.38;1.40;;;;;;;;;;5073717;28;20082;-37
2022/01/02 04:47:07;;;;;;;2.05;1.25;;;;;;;;;;5073962;28;20467;-38
2022/01/02 04:49:33;;;;;;;2.15;1.40;;;;;;;;;;5072349;28;20031;-37
2022/01/02 04:51:58;;;;;;;5.38;1.50;;;;;;;;;;5073635;28;20023;-38
2022/01/02 04:54:24;;;;;;;3.72;1.50;;;;;;;;;;5073827;28;20032;-37
2022/01/02 04:56:50;;;;;;;5.20;2.50;;;;;;;;;;5071528;28;20085;-38
2022/01/02 04:59:16;;;;;;;3.38;1.67;;;;;;;;;;5088619;28;20028;-38
2022/01/02 05:01:42;;;;;;;5.00;1.98;;;;;;;;;;5072101;28;20036;-38
2022/01/02 05:04:08;;;;;;;5.22;1.80;;;;;;;;;;5073357;28;20062;-37
2022/01/02 05:06:33;;;;;;;2.00;1.52;;;;;;;;;;5073352;28;20032;-38
2022/01/02 05:09:02;;;;;;;4.03;1.70;;;;;;;;;;5088836;28;20139;-38
2022/01/02 05:11:28;;;;;;;2.75;1.33;;;;;;;;;;5073433;28;20033;-38
2022/01/02 05:13:53;;;;;;;3.17;1.60;;;;;;;;;;5073642;28;20473;-37
2022/01/02 05:16:19;;;;;;;2.70;1.40;;;;;;;;;;5071884;28;20104;-38
2022/01/02 05:18:45;;;;;;;2.38;1.73;;;;;;;;;;5088560;28;20031;-37
2022/01/02 05:21:10;;;;;;;4.82;1.52;;;;;;;;;;5071739;28;20032;-37
2022/01/02 05:23:36;;;;;;;2.45;1.75;;;;;;;;;;5072959;28;20052;-38
2022/01/02 05:26:01;;;;;;;4.40;1.85;;;;;;;;;;5073257;28;20016;-38
2022/01/02 05:28:27;;;;;;;2.08;1.60;;;;;;;;;;5088365;28;20428;-37
2022/01/02 05:30:53;;;;;;;3.92;1.77;;;;;;;;;;5072909;28;20024;-37
2022/01/02 05:33:19;;;;;;;4.07;1.65;;;;;;;;;;5088404;28;20195;-37
2022/01/02 05:35:44;;;;;;;3.95;1.52;;;;;;;;;;5071485;28;20459;-37
2022/01/02 05:38:10;;;;;;;2.17;1.52;;;;;;;;;;5071290;28;20037;-39
2022/01/02 05:40:36;;;;;;;3.50;2.38;;;;;;;;;;5071304;28;20146;-37
2022/01/02 05:43:02;;;;;;;2.08;1.20;;;;;;;;;;5071390;28;20036;-37
2022/01/02 05:45:28;;;;;;;5.47;1.70;;;;;;;;;;5071275;28;20036;-37
2022/01/02 05:47:54;;;;;;;2.90;1.35;;;;;;;;;;5088085;28;20028;-38
2022/01/02 05:50:20;;;;;;;3.10;1.13;;;;;;;;;;5071271;28;20029;-38
2022/01/02 05:52:46;;;;;;;2.45;1.92;;;;;;;;;;5071098;28;20024;-37
2022/01/02 05:55:11;;;;;;;6.68;1.70;;;;;;;;;;5071099;28;20382;-38
2022/01/02 05:57:37;;;;;;;3.53;2.10;;;;;;;;;;5087949;28;20037;-38
2022/01/02 06:00:03;;;;;;;2.70;1.60;;;;;;;;;;5072203;28;20506;-37
2022/01/02 06:02:39;;;;;;;3.47;1.80;;;;;;;;;;5072210;28;20502;-38
2022/01/02 06:05:06;;;;;;;3.67;1.13;;;;;;;;;;5070943;28;20036;-37
2022/01/02 06:07:32;;;;;;;3.00;2.10;;;;;;;;;;5070785;28;20024;-38
2022/01/02 06:09:58;;;;;;;5.90;1.50;;;;;;;;;;5071937;28;20405;-38
2022/01/02 06:12:23;;;;;;;2.13;1.20;;;;;;;;;;5070781;28;20032;-38
2022/01/02 06:14:49;;;;;;;1.80;1.33;;;;;;;;;;5087632;28;20025;-37
2022/01/02 06:17:15;;;;;;;2.63;1.20;;;;;;;;;;5072258;28;20027;-37
2022/01/02 06:19:40;;;;;;;2.15;1.20;;;;;;;;;;5071916;28;20028;-38
2022/01/02 06:22:06;;;;;;;1.33;1.02;;;;;;;;;;5072101;28;20033;-38
2022/01/02 06:24:32;;;;;;;4.13;1.35;;;;;;;;;;5087380;28;20497;-37
2022/01/02 06:26:57;;;;;;;3.20;1.70;;;;;;;;;;5070521;28;20375;-38
2022/01/02 06:29:22;;;;;;;1.88;1.25;;;;;;;;;;5071747;28;20394;-38
2022/01/02 06:31:48;;;;;;;4.18;1.60;;;;;;;;;;5071932;28;20031;-37
2022/01/02 06:34:14;;;;;;;4.60;1.65;;;;;;;;;;5087402;28;20028;-37
2022/01/02 06:36:39;;;;;;;4.03;1.70;;;;;;;;;;5070234;28;20123;-37
2022/01/02 06:39:05;;;;;;;6.15;2.08;;;;;;;;;;5087078;28;20040;-38
2022/01/02 06:41:31;;;;;;;2.22;1.35;;;;;;;;;;5071531;28;20498;-37
2022/01/02 06:43:56;;;;;;;1.58;1.13;;;;;;;;;;5071810;28;20085;-37
2022/01/02 06:46:23;;;;;;;2.47;1.50;;;;;;;;;;5070298;28;20025;-38
2022/01/02 06:48:49;;;;;;;3.17;1.52;;;;;;;;;;5071739;28;20375;-38
2022/01/02 06:51:14;;;;;;;2.20;1.38;;;;;;;;;;5071493;28;20017;-38
2022/01/02 06:53:40;;;;;;;2.17;1.40;;;;;;;;;;5070105;28;20024;-37
2022/01/02 06:56:06;;;;;;;2.10;1.35;;;;;;;;;;5070144;28;20401;-37
2022/01/02 06:58:31;;;;;;;2.15;1.25;;;;;;;;;;5070007;28;20462;-37
2022/01/02 07:00:57;;;;;;;1.88;1.10;;;;;;;;;;5070024;28;20039;-37
2022/01/02 07:03:24;;;;;;;3.13;1.35;;;;;;;;;;5086829;28;20036;-38
2022/01/02 07:05:50;;;;;;;1.50;1.30;;;;;;;;;;5070073;28;20020;-38
2022/01/02 07:08:16;;;;;;;3.30;1.65;;;;;;;;;;5070242;28;20478;-38
2022/01/02 07:10:42;;;;;;;2.75;0.93;;;;;;;;;;5069932;28;20046;-38
2022/01/02 07:13:08;;;;;;;1.83;1.10;;;;;;;;;;5071219;28;20047;-37
2022/01/02 07:15:33;;;;;;;3.95;2.15;;;;;;;;;;5071377;28;20025;-38
2022/01/02 07:17:59;;;;;;;8.60;2.08;;;;;;;;;;5071197;28;20386;-37
2022/01/02 07:20:25;;;;;;;2.00;1.33;;;;;;;;;;5071553;28;20021;-37
2022/01/02 07:22:50;;;;;;;3.45;1.25;;;;;;;;;;5075619;28;20043;-38
2022/01/02 07:25:16;;;;;;;3.28;1.67;;;;;;;;;;5075383;28;20336;-38
2022/01/02 07:27:41;;;;;;;3.28;1.42;;;;;;;;;;5075116;28;20055;-37
2022/01/02 07:30:07;;;;;;;2.88;1.70;;;;;;;;;;5075339;28;20028;-37
2022/01/02 07:32:32;;;;;;;3.13;1.20;;;;;;;;;;5075357;28;20390;-38
2022/01/02 07:34:58;;;;;;;4.60;1.90;;;;;;;;;;5075174;28;20016;-38
2022/01/02 07:37:23;;;;;;;5.18;1.65;;;;;;;;;;5075028;28;20056;-38
2022/01/02 07:39:49;;;;;;;5.15;2.10;;;;;;;;;;5074752;28;20466;-37
2022/01/02 07:42:14;;;;;;;8.27;2.50;;;;;;;;;;5074977;28;20041;-38
2022/01/02 07:44:48;;;;;;;5.75;2.42;;;;;;;;;;5073539;28;20051;-37
2022/01/02 07:47:13;;;;;;;7.57;1.88;;;;;;;;;;5074797;28;20474;-37
2022/01/02 07:49:39;;;;;;;2.25;1.90;;;;;;;;;;5075011;28;20020;-38
2022/01/02 07:52:04;;;;;;;2.50;1.52;;;;;;;;;;5075112;28;20047;-38
2022/01/02 07:54:30;;;;;;;4.05;2.50;;;;;;;;;;5074664;28;20028;-38
2022/01/02 07:56:55;;;;;;;3.15;2.10;;;;;;;;;;5073673;28;20032;-37
2022/01/02 07:59:21;;;;;;;5.15;1.88;;;;;;;;;;5073708;28;20035;-37
2022/01/02 08:01:46;;;;;;;1.88;1.30;;;;;;;;;;5074443;28;20099;-37
2022/01/02 08:04:12;;;;;;;1.85;1.65;;;;;;;;;;5075070;28;20067;-37
2022/01/02 08:06:37;;;;;;;1.23;1.13;;;;;;;;;;5073131;28;20040;-37
2022/01/02 08:09:03;;;;;;;2.88;1.42;;;;;;;;;;5074299;28;20537;-37
2022/01/02 08:11:28;;;;;;;3.05;1.55;;;;;;;;;;5072980;28;20033;-37
2022/01/02 08:13:54;;;;;;;4.68;1.20;;;;;;;;;;5074356;28;20475;-37
2022/01/02 08:16:20;;;;;;;3.78;1.63;;;;;;;;;;5074431;28;20036;-37
2022/01/02 08:18:45;;;;;;;2.03;1.25;;;;;;;;;;5074193;28;20524;-37
2022/01/02 08:21:11;;;;;;;3.72;2.15;;;;;;;;;;5074166;28;20113;-38
2022/01/02 08:23:36;;;;;;;4.95;1.52;;;;;;;;;;5074325;28;20382;-37
2022/01/02 08:26:02;;;;;;;2.83;1.85;;;;;;;;;;5074173;28;20394;-38
2022/01/02 08:28:28;;;;;;;2.90;1.75;;;;;;;;;;5074204;28;20032;-38
2022/01/02 08:30:53;;;;;;;4.30;1.35;;;;;;;;;;5074010;28;20031;-37
2022/01/02 08:33:19;;;;;;;4.80;1.70;;;;;;;;;;5072682;28;20048;-37
2022/01/02 08:35:45;;;;;;;4.93;1.65;;;;;;;;;;5074115;28;20032;-37
2022/01/02 08:38:11;;;;;;;3.85;1.85;;;;;;;;;;5073981;28;20028;-38
2022/01/02 08:40:37;;;;;;;4.97;1.95;;;;;;;;;;5073626;28;20037;-39
2022/01/02 08:43:03;;;;;;;5.22;1.75;;;;;;;;;;5073905;28;20035;-38
2022/01/02 08:45:29;;;;;;;5.90;3.17;;;;;;;;;;5073970;28;20471;-37
2022/01/02 08:47:54;;;;;;;4.85;2.08;;;;;;;;;;5073726;28;20013;-37
2022/01/02 08:50:20;;;;;;;3.20;1.40;;;;;;;;;;5073739;28;20401;-38
2022/01/02 08:52:45;;;;;;;3.15;1.42;;;;;;;;;;5073880;28;20032;-37
2022/01/02 08:55:11;;;;;;;2.42;1.52;;;;;;;;;;5073873;28;20025;-38
2022/01/02 08:57:36;;;;;;;2.72;1.65;;;;;;;;;;5073470;28;20048;-37
2022/01/02 09:00:03;;;;;;;1.70;1.33;;;;;;;;;;5073522;28;20054;-37
2022/01/02 09:02:29;;;;;;;0.88;0.75;;;;;;;;;;5073614;28;20033;-37
2022/01/02 09:04:54;;;;;;;4.10;1.65;;;;;;;;;;5073437;28;20379;-38
2022/01/02 09:07:20;;;;;;;4.95;1.40;;;;;;;;;;5073654;28;20466;-37
2022/01/02 09:09:45;;;;;;;4.93;1.98;;;;;;;;;;5073299;28;20478;-38
2022/01/02 09:12:12;;;;;;;4.22;1.98;;;;;;;;;;5073554;28;20031;-37
2022/01/02 09:14:38;;;;;;;1.35;0.80;;;;;;;;;;5073478;28;20383;-37
2022/01/02 09:17:03;;;;;;;1.42;1.30;;;;;;;;;;5073247;28;20017;-38
2022/01/02 09:19:29;;;;;;;3.25;1.60;;;;;;;;;;5073345;28;20099;-38
2022/01/02 09:21:54;;;;;;;2.03;1.05;;;;;;;;;;5073202;28;20453;-37
2022/01/02 09:24:19;;;;;;;2.00;1.10;;;;;;;;;;5073316;28;20020;-37
2022/01/02 09:26:45;;;;;;;1.13;0.93;;;;;;;;;;5072908;28;20085;-37
2022/01/02 09:29:10;;;;;;;0.85;0.77;;;;;;;;;;5073287;28;20063;-38
2022/01/02 09:31:36;;;;;;;2.25;1.30;;;;;;;;;;5072834;28;20013;-39
2022/01/02 09:34:01;;;;;;;2.03;1.20;;;;;;;;;;5072901;28;20029;-38
2022/01/02 09:36:27;;;;;;;1.38;1.02;;;;;;;;;;5072789;28;20024;-38
2022/01/02 09:38:54;;;;;;;2.00;0.82;;;;;;;;;;5072700;28;20049;-37
2022/01/02 09:41:20;;;;;;;1.17;0.80;;;;;;;;;;5072866;28;20052;-38
2022/01/02 09:43:47;;;;;;;1.40;0.90;;;;;;;;;;5072079;28;20059;-37
2022/01/02 09:46:17;;;;;;;3.03;1.33;;;;;;;;;;5072881;28;20021;-38
2022/01/02 09:48:43;;;;;;;1.25;0.85;;;;;;;;;;5072332;28;20064;-38
2022/01/02 09:51:08;;;;;;;3.63;0.98;;;;;;;;;;5072579;28;20067;-38
2022/01/02 09:53:34;;;;;;;10.13;3.97;;;;;;;;;;5087995;28;20103;-38
2022/01/02 09:56:00;;;;;;;4.35;2.45;;;;;;;;;;5072580;28;20558;-38
2022/01/02 09:58:26;;;;;;;6.63;1.75;;;;;;;;;;5072346;28;20078;-37
2022/01/02 10:00:53;;;;;;;5.80;2.08;;;;;;;;;;5072155;28;20021;-37
2022/01/02 10:03:19;;;;;;;1.42;1.25;;;;;;;;;;5072201;28;20562;-38
2022/01/02 10:05:58;;;;;;;2.65;1.65;;;;;;;;;;5072231;28;20025;-38
2022/01/02 10:08:27;;;;;;;2.45;1.23;;;;;;;;;;5072089;28;20032;-40
2022/01/02 10:11:07;;;;;;;6.40;1.35;;;;;;;;;;5072361;28;20486;-38
2022/01/02 10:13:37;;;;;;;4.40;1.73;;;;;;;;;;5071946;28;20428;-38
2022/01/02 10:16:03;;;;;;;2.97;1.10;;;;;;;;;;5072225;28;20521;-38
2022/01/02 10:18:28;;;;;;;3.47;1.48;;;;;;;;;;5071698;28;20063;-38
2022/01/02 10:20:58;;;;;;;3.17;1.52;;;;;;;;;;5071878;28;20028;-38
2022/01/02 10:23:24;;;;;;;2.20;1.80;;;;;;;;;;5071847;28;20047;-38
2022/01/02 10:25:53;;;;;;;8.13;1.42;;;;;;;;;;5071757;28;20016;-37
2022/01/02 10:28:27;;;;;;;2.42;1.40;;;;;;;;;;5071731;28;20502;-37
2022/01/02 10:31:15;;;;;;;2.65;1.15;;;;;;;;;;5071668;28;20561;-38
2022/01/02 10:33:54;;;;;;;2.90;1.27;;;;;;;;;;5071593;28;20435;-37
2022/01/02 10:36:30;;;;;;;1.92;1.30;;;;;;;;;;5071737;28;20032;-37
2022/01/02 10:39:09;;;;;;;2.15;1.20;;;;;;;;;;5071399;28;20056;-38
2022/01/02 10:41:40;;;;;;;3.80;1.65;;;;;;;;;;5071406;28;20513;-38
2022/01/02 10:44:26;;;;;;;1.60;1.10;;;;;;;;;;5071635;28;20142;-38
2022/01/02 10:47:11;;;;;;;1.50;1.13;;;;;;;;;;5071339;28;20071;-38
2022/01/02 10:49:55;;;;;;;1.38;0.98;;;;;;;;;;5071423;28;20028;-38
2022/01/02 10:52:21;;;;;;;1.90;0.90;;;;;;;;;;5071467;28;20509;-37
2022/01/02 10:54:46;;;;;;;1.92;1.70;;;;;;;;;;5071214;28;20048;-37
2022/01/02 10:57:13;;;;;;;1.10;0.90;;;;;;;;;;5070985;28;20142;-38
2022/01/02 10:59:39;;;;;;;2.20;0.73;;;;;;;;;;5071588;28;20021;-37
2022/01/02 11:02:05;;;;;;;1.75;0.77;;;;;;;;;;5071653;28;20051;-38
2022/01/02 11:04:33;;;;;;;2.75;1.05;;;;;;;;;;5071388;28;20413;-38
2022/01/02 11:07:00;;;;;;;1.17;0.80;;;;;;;;;;5071455;28;20120;-38
2022/01/02 11:09:27;;;;;;;1.48;1.30;;;;;;;;;;5071351;28;20374;-38
2022/01/02 11:11:52;;;;;;;0.60;0.50;;;;;;;;;;5071253;28;20024;-37
2022/01/02 11:14:18;;;;;;;1.75;0.70;;;;;;;;;;5071204;28;20035;-38
2022/01/02 11:16:44;;;;;;;0.65;0.65;;;;;;;;;;5071157;28;20054;-38
2022/01/02 11:19:11;;;;;;;1.77;1.00;;;;;;;;;;5071139;28;20029;-38
2022/01/02 11:21:40;;;;;;;2.13;1.30;;;;;;;;;;5071348;28;20101;-37
2022/01/02 11:24:18;;;;;;;1.10;0.85;;;;;;;;;;5071532;28;20055;-38
2022/01/02 11:26:55;;;;;;;1.33;0.90;;;;;;;;;;5071016;28;20090;-37
2022/01/02 11:29:25;;;;;;;2.47;1.20;;;;;;;;;;5071336;28;20055;-38
2022/01/02 11:31:51;;;;;;;1.48;1.10;;;;;;;;;;5069755;28;20077;-37
2022/01/02 11:34:20;;;;;;;1.48;0.98;;;;;;;;;;5071145;28;20100;-38
2022/01/02 11:36:46;;;;;;;1.70;1.02;;;;;;;;;;5071174;28;20044;-37
2022/01/02 11:39:12;;;;;;;2.55;0.95;;;;;;;;;;5070817;28;20080;-37
2022/01/02 11:41:37;;;;;;;3.50;0.98;;;;;;;;;;5071059;28;20043;-38
2022/01/02 11:44:04;;;;;;;5.00;1.77;;;;;;;;;;5071172;28;20101;-38
2022/01/02 11:46:40;;;;;;;2.55;1.73;;;;;;;;;;5070857;28;20017;-38
2022/01/02 11:49:15;;;;;;;2.42;1.35;;;;;;;;;;5070961;28;20032;-38
2022/01/02 11:51:50;;;;;;;1.50;1.00;;;;;;;;;;5071080;28;20060;-38
2022/01/02 11:54:48;;;;;;;3.50;1.50;;;;;;;;;;5086459;28;20360;-37
2022/01/02 11:57:20;;;;;;;4.30;1.90;;;;;;;;;;5062664;28;20040;-38
2022/01/02 11:59:46;;;;;;;3.78;2.20;;;;;;;;;;5071043;28;20028;-38
2022/01/02 12:02:14;;;;;;;4.22;1.50;;;;;;;;;;5070601;28;20028;-38
2022/01/02 12:07:37;;;;;;;2.97;1.38;;;;;;;;;;5065233;28;20040;-38
2022/01/02 12:10:21;;;;;;;3.22;1.35;;;;;;;;;;5074383;28;20039;-39
2022/01/02 12:13:38;;;;;;;3.20;1.95;;;;;;;;;;5074623;28;20033;-37
2022/01/02 12:16:00;;;;;;;4.32;1.90;;;;;;;;;;5073245;28;20037;-37
2022/01/02 12:18:29;;;;;;;3.40;2.03;;;;;;;;;;5074400;28;20443;-37
2022/01/02 12:20:57;;;;;;;3.65;1.88;;;;;;;;;;5074255;28;20522;-38
2022/01/02 12:23:41;;;;;;;4.65;1.95;;;;;;;;;;5074185;28;20055;-37
2022/01/02 12:26:08;;;;;;;4.57;2.22;;;;;;;;;;5074403;28;20044;-38
2022/01/02 12:28:38;;;;;;;3.20;2.28;;;;;;;;;;5073934;28;20147;-38
2022/01/02 12:31:03;;;;;;;2.53;1.58;;;;;;;;;;5074282;28;20028;-38
2022/01/02 12:33:30;;;;;;;2.83;2.05;;;;;;;;;;5073926;28;20489;-38
2022/01/02 12:35:56;;;;;;;2.15;1.58;;;;;;;;;;5073967;28;20032;-38
2022/01/02 12:38:22;;;;;;;3.00;2.10;;;;;;;;;;5073649;28;20021;-38
2022/01/02 12:40:49;;;;;;;4.15;1.80;;;;;;;;;;5073699;28;20044;-38
2022/01/02 12:43:22;;;;;;;2.85;2.08;;;;;;;;;;5073916;28;20038;-37
2022/01/02 12:45:53;;;;;;;3.13;1.65;;;;;;;;;;5073664;28;20188;-38
2022/01/02 12:48:30;;;;;;;2.55;1.88;;;;;;;;;;5073743;28;20560;-37
2022/01/02 12:51:07;;;;;;;3.03;1.75;;;;;;;;;;5073682;28;20036;-37
2022/01/02 12:53:32;;;;;;;3.65;1.90;;;;;;;;;;5073675;28;20034;-38
2022/01/02 12:55:58;;;;;;;4.03;2.42;;;;;;;;;;5073936;28;20040;-37
2022/01/02 12:58:23;;;;;;;6.07;3.20;;;;;;;;;;5073852;28;20082;-37
2022/01/02 13:00:49;;;;;;;6.57;2.90;;;;;;;;;;5073603;28;20032;-38
2022/01/02 13:03:18;;;;;;;4.95;3.42;;;;;;;;;;5073536;28;20030;-38
2022/01/02 13:05:50;;;;;;;3.15;2.88;;;;;;;;;;5073468;28;20161;-38
2022/01/02 13:08:22;;;;;;;8.23;4.28;;;;;;;;;;5073568;28;20028;-38
2022/01/02 13:10:47;;;;;;;6.03;3.92;;;;;;;;;;5073630;28;20494;-37
2022/01/02 13:13:25;;;;;;;8.35;3.95;;;;;;;;;;5073312;28;20055;-37
2022/01/02 13:15:51;;;;;;;8.88;4.78;;;;;;;;;;5073177;28;20035;-38
2022/01/02 13:18:17;;;;;;;7.07;4.72;;;;;;;;;;5072243;28;20024;-37
2022/01/02 13:20:43;;;;;;;8.27;3.92;;;;;;;;;;5073071;28;20021;-38
2022/01/02 13:23:08;;;;;;;6.85;3.65;;;;;;;;;;5073095;28;20036;-37
2022/01/02 13:25:36;;;;;;;13.43;4.38;;;;;;;;;;5072934;28;20047;-38
2022/01/02 13:28:05;;;;;;;6.03;3.63;;;;;;;;;;5072998;28;20028;-37
2022/01/02 13:30:37;;;;;;;4.90;3.40;;;;;;;;;;5072838;28;20495;-38
2022/01/02 13:33:03;;;;;;;4.93;3.13;;;;;;;;;;5072987;28;20066;-37
2022/01/02 13:35:29;;;;;;;3.40;2.47;;;;;;;;;;5072767;28;20067;-37
2022/01/02 13:37:56;;;;;;;7.53;4.03;;;;;;;;;;5072631;28;20363;-37
2022/01/02 13:40:23;;;;;;;8.07;4.95;;;;;;;;;;5072662;28;20502;-37
2022/01/02 13:42:50;;;;;;;12.38;5.60;;;;;;;;;;5072692;28;20449;-37
2022/01/02 13:45:25;;;;;;;3.45;2.50;;;;;;;;;;5072775;28;20016;-37
2022/01/02 13:47:53;;;;;;;5.10;3.63;;;;;;;;;;5072701;28;20461;-40
2022/01/02 13:50:29;;;;;;;6.32;3.92;;;;;;;;;;5072526;28;20031;-38
2022/01/02 13:52:56;;;;;;;5.60;3.30;;;;;;;;;;5072350;28;20030;-38
2022/01/02 13:55:25;;;;;;;5.72;4.32;;;;;;;;;;5072754;28;20128;-37
2022/01/02 13:57:50;;;;;;;5.32;3.22;;;;;;;;;;5072449;28;20041;-40
2022/01/02 14:00:23;;;;;;;7.28;4.35;;;;;;;;;;5072396;28;20473;-38
2022/01/02 14:02:52;;;;;;;7.00;3.38;;;;;;;;;;5072187;28;20487;-37
2022/01/02 14:05:37;;;;;;;9.32;6.13;;;;;;;;;;5072454;28;20020;-38
2022/01/02 14:08:12;;;;;;;6.85;3.75;;;;;;;;;;5064699;28;20041;-38
2022/01/02 14:10:37;;;;;;;5.07;3.13;;;;;;;;;;5072129;28;20032;-38
2022/01/02 14:13:03;;;;;;;6.72;3.88;;;;;;;;;;5072007;28;20058;-38
2022/01/02 14:15:28;;;;;;;6.50;3.55;;;;;;;;;;5072112;28;20040;-38
2022/01/02 14:17:54;;;;;;;5.38;3.17;;;;;;;;;;5071941;28;20411;-37
2022/01/02 14:20:21;;;;;;;9.75;3.70;;;;;;;;;;5071963;28;20123;-38
2022/01/02 14:22:48;;;;;;;5.25;3.88;;;;;;;;;;5070506;28;20071;-38
2022/01/02 14:25:15;;;;;;;11.15;3.80;;;;;;;;;;5072018;28;20471;-38
2022/01/02 14:27:51;;;;;;;7.85;3.20;;;;;;;;;;5071651;28;20013;-37
2022/01/02 14:30:18;;;;;;;4.45;2.92;;;;;;;;;;5071763;28;20040;-37
2022/01/02 14:32:43;;;;;;;7.35;3.72;;;;;;;;;;5071578;28;20052;-38
2022/01/02 14:35:10;;;;;;;8.77;4.97;;;;;;;;;;5072087;28;20068;-38
2022/01/02 14:37:36;;;;;;;8.98;5.35;;;;;;;;;;5071903;28;20016;-38
2022/01/02 14:40:03;;;;;;;6.53;3.33;;;;;;;;;;5071412;28;20552;-37
2022/01/02 14:42:28;;;;;;;5.47;3.65;;;;;;;;;;5071668;28;20052;-38
2022/01/02 14:44:54;;;;;;;10.20;4.50;;;;;;;;;;5071493;28;20479;-37
2022/01/02 14:47:19;;;;;;;13.50;4.80;;;;;;;;;;5071782;28;20482;-38
2022/01/02 14:49:45;;;;;;;5.25;2.95;;;;;;;;;;5071479;28;20032;-37
2022/01/02 14:52:11;;;;;;;9.00;5.07;;;;;;;;;;5071626;28;20028;-37
2022/01/02 14:54:36;;;;;;;7.88;4.70;;;;;;;;;;5071451;28;20029;-37